Terminal Aerodrome Forecast
Issued by NWS Northern Indiana

Home | Current Version | Previous Version | Graphics & Text | Print | Product List | Glossary On
Versions: 1 2 3 4 5 6 7 8 9 10 11 12 13 14 15 16 17 18
000
FTUS43 KIWX 261727
TAFFWA
TAF
KFWA 261727Z 2618/2718 34008KT P6SM SCT020 BKN050
     FM270400 06012KT P6SM BKN015
     FM270800 07012KT 5SM BR OVC008
     FM271200 08012G18KT P6SM SCT030=

USA.gov is the U.S. government's official web portal to all federal, state and local government web resources and services.